createdAt,value
2023-03-24T00:06:09.332Z,99963.63
2023-03-24T00:12:52.665Z,99958.53
2023-03-24T00:19:38.537Z,99959.47
2023-03-24T00:26:22.133Z,99956.22
2023-03-24T00:33:04.660Z,99939.84
2023-03-24T00:39:46.990Z,99947.97
2023-03-24T00:46:29.655Z,99940.38
2023-03-24T00:53:17.064Z,99940.56
2023-03-24T00:59:59.234Z,99939.88
2023-03-24T01:06:42.170Z,99933.91
2023-03-24T01:13:29.328Z,99954.94
2023-03-24T01:20:12.169Z,99941.00
2023-03-24T01:26:54.464Z,99942.75
2023-03-24T01:33:38.088Z,99939.25
2023-03-24T01:40:28.239Z,99927.88
2023-03-24T01:47:10.514Z,99920.03
2023-03-24T01:54:22.307Z,99918.25
2023-03-24T02:01:07.928Z,99920.84
2023-03-24T02:08:50.692Z,99926.03
2023-03-24T02:15:38.892Z,99918.09
2023-03-24T02:23:01.196Z,99925.84
2023-03-24T02:30:31.924Z,99923.06
2023-03-24T02:37:55.117Z,99901.88
2023-03-24T02:45:02.271Z,99889.53
2023-03-24T02:51:52.267Z,99888.53
2023-03-24T02:59:00.448Z,99893.72
2023-03-24T03:05:52.140Z,99897.19
2023-03-24T03:12:38.164Z,99878.81
2023-03-24T03:19:23.057Z,99889.31
2023-03-24T03:26:13.061Z,99893.66
2023-03-24T03:33:26.149Z,99880.53
2023-03-24T03:40:20.666Z,99871.81
2023-03-24T03:47:07.623Z,99853.44
2023-03-24T03:54:02.543Z,99848.97
2023-03-24T04:00:46.689Z,99855.97
2023-03-24T04:08:18.066Z,99834.00
2023-03-24T04:15:45.102Z,99839.22
2023-03-24T04:23:09.312Z,99834.84
2023-03-24T04:29:59.884Z,99823.50
2023-03-24T04:36:54.463Z,99833.00
2023-03-24T04:43:58.177Z,99803.19
2023-03-24T04:50:43.953Z,99792.63
2023-03-24T04:57:31.641Z,99795.16
2023-03-24T05:04:26.834Z,99790.69
2023-03-24T05:11:09.821Z,99781.00
2023-03-24T05:17:55.720Z,99771.28
2023-03-24T05:24:40.698Z,99752.78
2023-03-24T05:31:23.401Z,99756.13
2023-03-24T05:38:13.662Z,99741.97
2023-03-24T05:45:00.098Z,99733.16
2023-03-24T05:51:43.096Z,99709.47
2023-03-24T05:58:26.196Z,99702.38
2023-03-24T06:05:12.912Z,99698.81
2023-03-24T06:11:56.395Z,99709.06
2023-03-24T06:18:44.225Z,99701.00
2023-03-24T06:25:36.964Z,99704.22
2023-03-24T06:32:30.157Z,99698.59
2023-03-24T06:39:13.154Z,99705.22
2023-03-24T06:45:56.543Z,99682.84
2023-03-24T06:52:39.598Z,99679.72
2023-03-24T06:59:24.628Z,99648.56
2023-03-24T07:06:07.586Z,99643.78
2023-03-24T07:12:50.246Z,99635.44
2023-03-24T07:19:32.534Z,99621.91
2023-03-24T07:26:32.964Z,99608.44
2023-03-24T07:33:40.642Z,99601.75
2023-03-24T07:40:23.392Z,99592.38
2023-03-24T07:47:05.833Z,99586.31
2023-03-24T07:53:48.534Z,99568.72
2023-03-24T08:00:40.040Z,99563.47
2023-03-24T08:07:39.281Z,99552.19
2023-03-24T08:14:23.743Z,99547.09
2023-03-24T08:21:07.204Z,99532.09
2023-03-24T08:27:49.482Z,99531.75
2023-03-24T08:34:31.790Z,99521.44
2023-03-24T08:41:13.949Z,99521.09
2023-03-24T08:47:59.130Z,99510.44
2023-03-24T08:54:41.387Z,99500.88
2023-03-24T09:01:24.084Z,99483.34
2023-03-24T09:08:08.090Z,99460.13
2023-03-24T09:14:51.080Z,99451.56
2023-03-24T09:21:33.294Z,99419.97
2023-03-24T09:28:16.292Z,99421.28
2023-03-24T09:34:58.461Z,99405.81
2023-03-24T09:41:41.477Z,99402.09
2023-03-24T09:48:39.475Z,99377.41
2023-03-24T09:55:28.094Z,99371.47
2023-03-24T10:02:18.288Z,99344.22
2023-03-24T10:09:33.636Z,99345.84
2023-03-24T10:16:45.862Z,99337.00
2023-03-24T10:24:21.849Z,99326.69
2023-03-24T10:31:11.678Z,99335.91
2023-03-24T10:38:00.160Z,99324.19
2023-03-24T10:44:42.503Z,99309.78
2023-03-24T10:51:34.917Z,99307.66
2023-03-24T10:58:49.695Z,99294.72
2023-03-24T11:05:40.834Z,99296.72
2023-03-24T11:12:31.212Z,99306.03
2023-03-24T11:19:23.417Z,99313.72
2023-03-24T11:26:12.668Z,99302.78
2023-03-24T11:32:55.415Z,99289.53
2023-03-24T11:39:37.778Z,99275.53
2023-03-24T11:46:21.304Z,99263.69
2023-03-24T11:53:22.090Z,99251.53
2023-03-24T12:00:20.697Z,99257.47
2023-03-24T12:07:25.174Z,99254.06
2023-03-24T12:14:09.687Z,99256.84
2023-03-24T12:21:11.108Z,99257.75
2023-03-24T12:28:11.591Z,99256.16
2023-03-24T12:35:00.193Z,99258.34
2023-03-24T12:42:19.590Z,99260.84
2023-03-24T12:49:21.072Z,99261.19
2023-03-24T12:56:27.895Z,99256.84
2023-03-24T13:03:29.525Z,99241.63
2023-03-24T13:10:16.033Z,99230.31
2023-03-24T13:17:13.327Z,99217.06
2023-03-24T13:24:10.025Z,99218.44
2023-03-24T13:30:54.400Z,99224.22
2023-03-24T13:38:12.435Z,99211.38
2023-03-24T13:44:59.450Z,99205.16
2023-03-24T13:51:46.264Z,99211.56
2023-03-24T13:58:48.483Z,99220.84
2023-03-24T14:05:57.681Z,99228.38
2023-03-24T14:13:02.063Z,99225.28
2023-03-24T14:20:10.657Z,99219.22
2023-03-24T14:26:53.206Z,99219.81
2023-03-24T14:33:35.717Z,99223.47
2023-03-24T14:40:40.099Z,99223.09
2023-03-24T14:47:29.874Z,99231.25
2023-03-24T14:54:49.050Z,99227.31
2023-03-24T15:01:38.908Z,99230.47
2023-03-24T15:08:23.701Z,99225.59
2023-03-24T15:15:13.991Z,99226.81
2023-03-24T15:22:12.849Z,99221.72
2023-03-24T15:29:06.151Z,99244.75
2023-03-24T15:35:59.884Z,99237.84
2023-03-24T15:42:43.931Z,99246.97
2023-03-24T15:49:35.627Z,99260.19
2023-03-24T15:56:29.178Z,99262.03
2023-03-24T16:03:17.775Z,99257.72
2023-03-24T16:10:05.976Z,99246.81
2023-03-24T16:16:48.424Z,99249.81
2023-03-24T16:23:31.851Z,99254.50
2023-03-24T16:30:25.101Z,99300.97
2023-03-24T16:37:08.116Z,99307.88
2023-03-24T16:43:50.648Z,99315.88
2023-03-24T16:50:42.335Z,99332.53
2023-03-24T16:57:24.573Z,99352.94
2023-03-24T17:04:11.467Z,99352.56
2023-03-24T17:10:54.394Z,99363.13
2023-03-24T17:17:36.823Z,99366.53
2023-03-24T17:24:20.143Z,99355.56
2023-03-24T17:31:02.411Z,99386.50
2023-03-24T17:37:44.826Z,99381.34
2023-03-24T17:44:28.434Z,99378.97
2023-03-24T17:51:10.709Z,99372.84
2023-03-24T17:57:52.933Z,99378.25
2023-03-24T18:04:35.594Z,99374.94
2023-03-24T18:11:18.063Z,99361.97
2023-03-24T18:18:01.081Z,99373.50
2023-03-24T18:24:43.490Z,99389.50
2023-03-24T18:31:27.177Z,99408.31
2023-03-24T18:38:09.455Z,99420.81
2023-03-24T18:44:51.641Z,99433.19
2023-03-24T18:51:35.619Z,99418.31
2023-03-24T18:58:18.831Z,99424.63
2023-03-24T19:05:02.445Z,99440.78
2023-03-24T19:11:45.093Z,99440.06
2023-03-24T19:18:27.381Z,99436.88
2023-03-24T19:25:09.943Z,99454.19
2023-03-24T19:31:52.145Z,99448.47
2023-03-24T19:38:35.991Z,99440.13
2023-03-24T19:45:19.248Z,99449.75
2023-03-24T19:52:01.649Z,99443.31
2023-03-24T19:58:43.890Z,99440.34
2023-03-24T20:05:26.306Z,99448.84
2023-03-24T20:12:08.679Z,99461.78
2023-03-24T20:18:51.104Z,99465.88
2023-03-24T20:25:33.331Z,99479.50
2023-03-24T20:32:15.606Z,99483.47
2023-03-24T20:38:59.669Z,99484.81
2023-03-24T20:45:41.968Z,99482.50
2023-03-24T20:52:24.499Z,99474.09
2023-03-24T20:59:07.404Z,99472.72
2023-03-24T21:05:50.692Z,99476.59
2023-03-24T21:12:34.185Z,99477.81
2023-03-24T21:19:16.437Z,99481.53
2023-03-24T21:25:58.855Z,99487.78
2023-03-24T21:32:41.133Z,99499.19
2023-03-24T21:39:24.115Z,99515.88
2023-03-24T21:46:07.088Z,99496.50
2023-03-24T21:52:54.026Z,99497.13
2023-03-24T21:59:37.739Z,99525.97
2023-03-24T22:06:22.064Z,99517.06
2023-03-24T22:13:04.884Z,99514.06
2023-03-24T22:19:47.105Z,99516.38
2023-03-24T22:26:29.306Z,99529.13
2023-03-24T22:33:11.586Z,99527.09
2023-03-24T22:39:53.832Z,99527.84
2023-03-24T22:46:36.571Z,99525.31
2023-03-24T22:53:18.947Z,99536.78
2023-03-24T23:00:02.004Z,99541.47
2023-03-24T23:06:46.818Z,99538.22
2023-03-24T23:13:30.816Z,99529.69
2023-03-24T23:20:14.926Z,99541.34
2023-03-24T23:26:57.226Z,99543.38
2023-03-24T23:33:42.036Z,99539.28
2023-03-24T23:40:24.295Z,99551.56
2023-03-24T23:47:06.982Z,99548.06
2023-03-24T23:53:49.801Z,99544.53
